createdAt,value
2017-06-11T00:00:13.886Z,16.37
2017-06-11T00:02:41.233Z,16.23
2017-06-11T00:05:08.594Z,15.57
2017-06-11T00:07:35.922Z,14.63
2017-06-11T00:10:03.242Z,14.10
2017-06-11T00:12:30.563Z,14.13
2017-06-11T00:14:58.286Z,14.30
2017-06-11T00:17:25.607Z,13.63
2017-06-11T00:19:52.944Z,14.40
2017-06-11T00:22:20.273Z,14.80
2017-06-11T00:24:47.647Z,15.40
2017-06-11T00:27:15.259Z,15.50
2017-06-11T00:29:42.614Z,15.07
2017-06-11T00:32:10.409Z,14.90
2017-06-11T00:34:37.734Z,14.97
2017-06-11T00:37:05.344Z,15.57
2017-06-11T00:39:32.684Z,15.33
2017-06-11T00:42:00.019Z,15.80
2017-06-11T00:44:27.386Z,15.40
2017-06-11T00:46:55.327Z,16.00
2017-06-11T00:49:22.653Z,16.50
2017-06-11T00:51:50.014Z,17.20
2017-06-11T00:54:17.336Z,16.23
2017-06-11T00:56:44.701Z,16.60
2017-06-11T00:59:12.020Z,15.80
2017-06-11T01:01:39.413Z,16.03
2017-06-11T01:04:06.717Z,15.47
2017-06-11T01:06:34.025Z,15.10
2017-06-11T01:09:01.356Z,14.73
2017-06-11T01:11:28.725Z,16.50
2017-06-11T01:13:56.081Z,14.97
2017-06-11T01:16:23.449Z,16.30
2017-06-11T01:18:50.769Z,15.57
2017-06-11T01:21:18.105Z,15.83
2017-06-11T01:23:45.442Z,15.30
2017-06-11T01:26:12.770Z,16.60
2017-06-11T01:28:40.140Z,15.77
2017-06-11T01:31:07.761Z,16.10
2017-06-11T01:33:35.099Z,15.67
2017-06-11T01:36:02.407Z,16.17
2017-06-11T01:38:29.802Z,16.43
2017-06-11T01:40:57.151Z,15.63
2017-06-11T01:43:24.493Z,15.87
2017-06-11T01:45:51.846Z,16.50
2017-06-11T01:48:19.162Z,16.83
2017-06-11T01:50:46.556Z,15.73
2017-06-11T01:53:13.845Z,16.90
2017-06-11T01:55:41.193Z,18.03
2017-06-11T01:58:08.520Z,18.33
2017-06-11T02:00:35.885Z,18.20
2017-06-11T02:03:03.222Z,18.60
2017-06-11T02:05:30.552Z,19.00
2017-06-11T02:07:57.861Z,20.20
2017-06-11T02:10:25.210Z,17.80
2017-06-11T02:12:52.516Z,19.60
2017-06-11T02:15:19.845Z,18.77
2017-06-11T02:17:47.149Z,18.77
2017-06-11T02:20:14.457Z,19.80
2017-06-11T02:22:41.790Z,18.13
2017-06-11T02:25:09.113Z,18.63
2017-06-11T02:27:36.432Z,19.70
2017-06-11T02:30:03.771Z,20.50
2017-06-11T02:32:31.097Z,19.63
2017-06-11T02:34:58.466Z,18.53
2017-06-11T02:37:25.818Z,21.07
2017-06-11T02:39:53.126Z,18.77
2017-06-11T02:42:20.469Z,19.30
2017-06-11T02:44:47.795Z,18.97
2017-06-11T02:47:15.328Z,18.70
2017-06-11T02:49:42.642Z,17.53
2017-06-11T02:52:09.960Z,18.60
2017-06-11T02:54:37.603Z,16.97
2017-06-11T02:57:04.904Z,18.13
2017-06-11T02:59:32.220Z,16.90
2017-06-11T03:01:59.535Z,18.20
2017-06-11T03:04:26.857Z,17.00
2017-06-11T03:06:54.173Z,17.13
2017-06-11T03:09:21.533Z,16.63
2017-06-11T03:11:54.793Z,17.27
2017-06-11T03:14:22.145Z,16.53
2017-06-11T03:16:49.477Z,15.80
2017-06-11T03:19:16.821Z,14.70
2017-06-11T03:21:44.172Z,14.70
2017-06-11T03:24:11.508Z,14.80
2017-06-11T03:26:39.177Z,14.50
2017-06-11T03:29:06.505Z,14.20
2017-06-11T03:31:33.829Z,14.40
2017-06-11T03:34:01.158Z,13.50
2017-06-11T03:36:28.493Z,13.60
2017-06-11T03:38:55.800Z,14.03
2017-06-11T03:41:23.132Z,15.20
2017-06-11T03:43:50.436Z,14.10
2017-06-11T03:46:17.797Z,13.70
2017-06-11T03:48:45.116Z,13.83
2017-06-11T03:51:12.473Z,14.30
2017-06-11T03:53:39.804Z,14.60
2017-06-11T03:56:07.149Z,13.87
2017-06-11T03:58:34.485Z,13.40
2017-06-11T04:01:01.843Z,14.60
2017-06-11T04:03:30.155Z,13.70
2017-06-11T04:05:57.460Z,14.40
2017-06-11T04:08:24.796Z,15.70
2017-06-11T04:10:52.501Z,14.90
2017-06-11T04:13:19.829Z,14.90
2017-06-11T04:15:47.155Z,14.90
2017-06-11T04:18:14.479Z,16.13
2017-06-11T04:20:41.791Z,16.03
2017-06-11T04:23:09.257Z,15.70
2017-06-11T04:25:36.577Z,15.30
2017-06-11T04:28:03.901Z,15.70
2017-06-11T04:30:31.560Z,15.83
2017-06-11T04:32:58.925Z,15.30
2017-06-11T04:35:26.229Z,16.17
2017-06-11T04:37:53.592Z,15.27
2017-06-11T04:40:22.445Z,15.77
2017-06-11T04:42:49.773Z,16.23
2017-06-11T04:45:17.126Z,15.83
2017-06-11T04:47:44.441Z,15.20
2017-06-11T04:50:11.750Z,15.30
2017-06-11T04:52:39.072Z,15.60
2017-06-11T04:55:06.385Z,15.80
2017-06-11T04:57:33.720Z,15.40
2017-06-11T05:00:01.026Z,16.00
2017-06-11T05:02:28.388Z,14.60
2017-06-11T05:04:55.695Z,14.23
2017-06-11T05:07:23.001Z,13.40
2017-06-11T05:09:50.702Z,13.00
2017-06-11T05:12:17.998Z,13.50
2017-06-11T05:14:45.360Z,13.10
2017-06-11T05:17:12.690Z,13.80
2017-06-11T05:19:40.073Z,13.93
2017-06-11T05:22:07.390Z,12.63
2017-06-11T05:24:34.714Z,12.30
2017-06-11T05:27:02.057Z,11.80
2017-06-11T05:29:29.702Z,10.23
2017-06-11T05:31:57.066Z,11.17
2017-06-11T05:34:24.381Z,11.30
2017-06-11T05:36:51.767Z,10.60
2017-06-11T05:39:19.085Z,10.67
2017-06-11T05:41:46.408Z,10.80
2017-06-11T05:44:13.753Z,10.50
2017-06-11T05:46:41.141Z,10.63
2017-06-11T05:49:08.440Z,10.03
2017-06-11T05:51:35.773Z,9.40
2017-06-11T05:54:03.073Z,10.37
2017-06-11T05:56:30.400Z,9.37
2017-06-11T05:58:57.709Z,9.17
2017-06-11T06:01:25.365Z,9.30
2017-06-11T06:03:52.665Z,8.50
2017-06-11T06:06:19.996Z,8.23
2017-06-11T06:08:47.320Z,9.17
2017-06-11T06:11:14.673Z,8.80
2017-06-11T06:13:41.988Z,8.70
2017-06-11T06:16:09.287Z,9.10
2017-06-11T06:18:36.682Z,8.20
2017-06-11T06:21:03.977Z,8.80
2017-06-11T06:23:31.277Z,9.13
2017-06-11T06:25:58.601Z,9.70
2017-06-11T06:28:26.897Z,10.00
2017-06-11T06:30:54.269Z,9.57
2017-06-11T06:33:21.582Z,7.97
2017-06-11T06:35:48.991Z,7.87
2017-06-11T06:38:16.306Z,8.73
2017-06-11T06:40:43.617Z,8.70
2017-06-11T06:43:11.566Z,8.23
2017-06-11T06:45:39.202Z,7.10
2017-06-11T06:48:06.525Z,7.00
2017-06-11T06:50:33.821Z,6.83
2017-06-11T06:53:01.155Z,6.23
2017-06-11T06:55:28.473Z,6.47
2017-06-11T06:57:55.821Z,5.70
2017-06-11T07:00:23.164Z,5.97
2017-06-11T07:02:50.499Z,5.70
2017-06-11T07:05:17.846Z,5.50
2017-06-11T07:07:45.175Z,4.93
2017-06-11T07:10:12.488Z,5.77
2017-06-11T07:12:39.887Z,5.17
2017-06-11T07:15:07.185Z,5.27
2017-06-11T07:17:34.649Z,5.30
2017-06-11T07:20:01.994Z,5.33
2017-06-11T07:22:29.322Z,5.90
2017-06-11T07:24:56.656Z,5.10
2017-06-11T07:27:23.993Z,5.83
2017-06-11T07:29:51.288Z,5.30
2017-06-11T07:32:18.596Z,4.63
2017-06-11T07:34:45.933Z,5.00
2017-06-11T07:37:13.252Z,4.90
2017-06-11T07:39:40.656Z,4.93
2017-06-11T07:42:07.968Z,4.70
2017-06-11T07:44:35.325Z,4.63
2017-06-11T07:47:03.014Z,4.50
2017-06-11T07:49:30.324Z,4.60
2017-06-11T07:51:57.635Z,5.07
2017-06-11T07:54:24.945Z,5.00
2017-06-11T07:56:52.271Z,5.03
2017-06-11T07:59:19.568Z,5.20
2017-06-11T08:01:46.934Z,4.60
2017-06-11T08:04:14.237Z,5.10
2017-06-11T08:06:41.565Z,4.80
2017-06-11T08:09:08.869Z,4.77
2017-06-11T08:11:36.269Z,5.67
2017-06-11T08:14:03.841Z,4.90
2017-06-11T08:16:31.222Z,5.47
2017-06-11T08:18:58.717Z,5.43
2017-06-11T08:21:26.061Z,5.97
2017-06-11T08:23:53.380Z,4.87
2017-06-11T08:26:20.738Z,5.23
2017-06-11T08:28:48.033Z,5.13
2017-06-11T08:31:15.327Z,4.60
2017-06-11T08:33:42.960Z,5.23
2017-06-11T08:36:10.251Z,5.73
2017-06-11T08:38:37.583Z,5.50
2017-06-11T08:41:04.877Z,5.60
2017-06-11T08:43:32.233Z,5.87
2017-06-11T08:45:59.529Z,5.70
2017-06-11T08:48:26.870Z,5.90
2017-06-11T08:50:54.193Z,4.83
2017-06-11T08:53:21.521Z,5.30
2017-06-11T08:55:48.829Z,4.63
2017-06-11T08:58:16.137Z,4.63
2017-06-11T09:00:43.533Z,4.67
2017-06-11T09:03:10.922Z,4.77
2017-06-11T09:05:38.233Z,4.37
2017-06-11T09:08:05.566Z,5.00
2017-06-11T09:10:32.867Z,4.30
2017-06-11T09:13:00.401Z,4.90
2017-06-11T09:15:27.722Z,4.20
2017-06-11T09:17:55.054Z,4.07
2017-06-11T09:20:22.350Z,4.23
2017-06-11T09:22:49.645Z,4.87
2017-06-11T09:25:16.969Z,4.20
2017-06-11T09:27:44.569Z,3.87
2017-06-11T09:30:11.885Z,3.80
2017-06-11T09:32:39.232Z,4.10
2017-06-11T09:35:06.617Z,3.90
2017-06-11T09:37:33.953Z,4.00
2017-06-11T09:40:01.270Z,3.77
2017-06-11T09:42:28.815Z,3.67
2017-06-11T09:44:56.133Z,3.90
2017-06-11T09:47:23.491Z,3.40
2017-06-11T09:49:50.838Z,3.77
2017-06-11T09:52:18.213Z,3.47
2017-06-11T09:54:45.505Z,3.63
2017-06-11T09:57:12.841Z,3.60
2017-06-11T09:59:40.528Z,4.00
2017-06-11T10:02:07.822Z,3.47
2017-06-11T10:04:35.307Z,3.40
2017-06-11T10:07:03.340Z,3.63
2017-06-11T10:09:30.894Z,3.43
2017-06-11T10:11:58.212Z,3.27
2017-06-11T10:14:26.226Z,3.33
2017-06-11T10:16:54.130Z,3.53
2017-06-11T10:19:21.474Z,3.37
2017-06-11T10:21:49.122Z,3.43
2017-06-11T10:24:16.442Z,3.47
2017-06-11T10:26:43.746Z,3.50
2017-06-11T10:29:11.967Z,3.00
2017-06-11T10:31:39.307Z,3.20
2017-06-11T10:34:06.660Z,3.23
2017-06-11T10:36:34.030Z,3.20
2017-06-11T10:39:02.131Z,2.97
2017-06-11T10:41:29.626Z,2.73
2017-06-11T10:43:57.284Z,3.40
2017-06-11T10:46:24.621Z,3.03
2017-06-11T10:48:51.929Z,3.17
2017-06-11T10:51:19.280Z,3.30
2017-06-11T10:53:46.588Z,2.60
2017-06-11T10:56:13.910Z,2.57
2017-06-11T10:58:41.218Z,2.70
2017-06-11T11:01:08.525Z,3.03
2017-06-11T11:03:35.863Z,2.97
2017-06-11T11:06:03.817Z,3.20
2017-06-11T11:08:31.181Z,2.90
2017-06-11T11:10:58.536Z,2.80
2017-06-11T11:13:25.825Z,2.90
2017-06-11T11:15:53.155Z,2.87
2017-06-11T11:18:20.457Z,3.27
2017-06-11T11:20:47.752Z,2.97
2017-06-11T11:23:15.076Z,2.83
2017-06-11T11:25:42.374Z,3.10
2017-06-11T11:28:09.699Z,3.17
2017-06-11T11:30:37.029Z,2.90
2017-06-11T11:33:04.380Z,2.60
2017-06-11T11:35:31.727Z,2.80
2017-06-11T11:37:59.061Z,3.10
2017-06-11T11:40:26.406Z,3.03
2017-06-11T11:42:54.083Z,2.80
2017-06-11T11:45:21.381Z,2.50
2017-06-11T11:47:48.684Z,2.67
2017-06-11T11:50:15.973Z,2.43
2017-06-11T11:52:43.310Z,2.77
2017-06-11T11:55:10.611Z,2.77
2017-06-11T11:57:37.934Z,3.07
2017-06-11T12:00:05.430Z,2.80
2017-06-11T12:02:32.791Z,2.63
2017-06-11T12:05:00.097Z,2.43
2017-06-11T12:07:27.402Z,2.30
2017-06-11T12:09:54.840Z,2.60
2017-06-11T12:12:22.132Z,2.67
2017-06-11T12:14:49.445Z,2.40
2017-06-11T12:17:16.936Z,2.50
2017-06-11T12:19:44.307Z,2.83
2017-06-11T12:22:11.620Z,2.53
2017-06-11T12:24:38.979Z,2.63
2017-06-11T12:27:06.273Z,3.40
2017-06-11T12:29:33.580Z,2.70
2017-06-11T12:32:00.885Z,2.63
2017-06-11T12:34:28.202Z,2.60
2017-06-11T12:36:55.522Z,2.50
2017-06-11T12:39:22.822Z,2.60
2017-06-11T12:41:50.161Z,2.33
2017-06-11T12:44:17.468Z,2.30
2017-06-11T12:46:45.005Z,2.13
2017-06-11T12:49:12.321Z,2.73
2017-06-11T12:51:39.635Z,2.13
2017-06-11T12:54:06.947Z,2.00
2017-06-11T12:56:34.262Z,2.03
2017-06-11T12:59:01.621Z,1.90
2017-06-11T13:01:28.959Z,2.10
2017-06-11T13:03:56.301Z,2.40
2017-06-11T13:06:23.642Z,2.03
2017-06-11T13:08:50.973Z,1.87
2017-06-11T13:11:18.302Z,1.90
2017-06-11T13:13:45.669Z,1.93
2017-06-11T13:16:13.066Z,2.17
2017-06-11T13:18:40.366Z,2.27
2017-06-11T13:21:07.686Z,2.30
2017-06-11T13:23:34.997Z,2.37
2017-06-11T13:26:02.310Z,2.47
2017-06-11T13:28:29.644Z,2.20
2017-06-11T13:30:56.958Z,2.10
2017-06-11T13:33:24.329Z,2.00
2017-06-11T13:35:51.629Z,1.97
2017-06-11T13:38:18.963Z,2.10
2017-06-11T13:40:46.295Z,2.28
2017-06-11T13:43:13.596Z,2.03
2017-06-11T13:45:40.909Z,2.00
2017-06-11T13:48:08.233Z,2.20
2017-06-11T13:50:35.735Z,2.17
2017-06-11T13:53:03.052Z,1.92
2017-06-11T13:55:30.349Z,2.30
2017-06-11T13:57:57.679Z,2.23
2017-06-11T14:00:24.987Z,1.90
2017-06-11T14:02:52.301Z,2.30
2017-06-11T14:05:19.618Z,2.00
2017-06-11T14:07:46.975Z,2.10
2017-06-11T14:10:14.310Z,2.00
2017-06-11T14:12:41.645Z,1.90
2017-06-11T14:15:08.970Z,2.00
2017-06-11T14:17:36.277Z,1.90
2017-06-11T14:20:03.613Z,1.92
2017-06-11T14:22:30.953Z,1.98
2017-06-11T14:24:58.305Z,1.90
2017-06-11T14:27:25.622Z,1.85
2017-06-11T14:29:52.950Z,2.00
2017-06-11T14:32:20.293Z,2.15
2017-06-11T14:34:47.604Z,1.70
2017-06-11T14:37:14.948Z,1.73
2017-06-11T14:39:42.295Z,2.12
2017-06-11T14:42:09.590Z,1.83
2017-06-11T14:44:37.092Z,2.10
2017-06-11T14:47:04.432Z,1.80
2017-06-11T14:49:31.780Z,1.80
2017-06-11T14:51:59.098Z,1.92
2017-06-11T14:54:26.467Z,1.73
2017-06-11T14:56:53.802Z,2.17
2017-06-11T14:59:21.158Z,2.17
2017-06-11T15:01:48.476Z,2.00
2017-06-11T15:04:16.125Z,2.10
2017-06-11T15:06:43.486Z,2.08
2017-06-11T15:09:10.809Z,2.08
2017-06-11T15:11:38.134Z,1.83
2017-06-11T15:14:05.441Z,2.00
2017-06-11T15:16:32.749Z,1.98
2017-06-11T15:19:00.063Z,1.98
2017-06-11T15:21:27.816Z,1.80
2017-06-11T15:23:55.162Z,2.03
2017-06-11T15:26:22.476Z,1.75
2017-06-11T15:28:49.842Z,1.70
2017-06-11T15:31:17.197Z,1.80
2017-06-11T15:33:44.521Z,1.90
2017-06-11T15:36:11.894Z,2.20
2017-06-11T15:38:39.255Z,1.85
2017-06-11T15:41:07.812Z,2.10
2017-06-11T15:43:35.136Z,2.13
2017-06-11T15:46:02.458Z,2.03
2017-06-11T15:48:29.796Z,2.30
2017-06-11T15:50:57.157Z,2.30
2017-06-11T15:53:24.484Z,2.70
2017-06-11T15:55:51.815Z,2.40
2017-06-11T15:58:19.138Z,2.37
2017-06-11T16:00:46.430Z,2.00
2017-06-11T16:03:13.762Z,2.10
2017-06-11T16:05:41.110Z,2.60
2017-06-11T16:08:08.445Z,2.40
2017-06-11T16:10:35.766Z,2.33
2017-06-11T16:13:03.129Z,2.83
2017-06-11T16:15:30.446Z,2.90
2017-06-11T16:17:57.801Z,2.63
2017-06-11T16:20:25.118Z,2.50
2017-06-11T16:22:52.419Z,2.50
2017-06-11T16:25:19.742Z,2.30
2017-06-11T16:27:47.041Z,2.27
2017-06-11T16:30:14.353Z,2.63
2017-06-11T16:32:41.661Z,2.50
2017-06-11T16:35:08.990Z,2.37
2017-06-11T16:37:36.315Z,2.40
2017-06-11T16:40:03.637Z,2.27
2017-06-11T16:42:30.993Z,2.57
2017-06-11T16:44:58.316Z,2.20
2017-06-11T16:47:25.627Z,2.40
2017-06-11T16:49:52.937Z,2.70
2017-06-11T16:52:20.270Z,2.70
2017-06-11T16:54:47.613Z,2.67
2017-06-11T16:57:14.952Z,2.47
2017-06-11T16:59:42.310Z,2.50
2017-06-11T17:02:09.629Z,2.50
2017-06-11T17:04:37.924Z,2.90
2017-06-11T17:07:05.240Z,2.53
2017-06-11T17:09:32.574Z,2.73
2017-06-11T17:11:59.918Z,3.00
2017-06-11T17:14:27.229Z,2.80
2017-06-11T17:16:54.548Z,2.80
2017-06-11T17:19:21.841Z,2.80
2017-06-11T17:21:50.110Z,2.67
2017-06-11T17:24:17.445Z,2.90
2017-06-11T17:26:44.786Z,2.70
2017-06-11T17:29:12.108Z,3.00
2017-06-11T17:31:39.431Z,2.93
2017-06-11T17:34:06.811Z,2.90
2017-06-11T17:36:34.157Z,2.70
2017-06-11T17:39:01.477Z,2.80
2017-06-11T17:41:28.801Z,2.90
2017-06-11T17:43:56.357Z,2.90
2017-06-11T17:46:23.666Z,2.70
2017-06-11T17:48:50.982Z,2.90
2017-06-11T17:51:18.298Z,2.70
2017-06-11T17:53:45.605Z,2.80
2017-06-11T17:56:12.902Z,3.23
2017-06-11T17:58:40.237Z,3.20
2017-06-11T18:01:07.550Z,2.93
2017-06-11T18:03:34.874Z,3.17
2017-06-11T18:06:02.178Z,2.90
2017-06-11T18:08:29.492Z,3.53
2017-06-11T18:10:56.829Z,3.00
2017-06-11T18:13:24.186Z,3.10
2017-06-11T18:15:51.485Z,2.60
2017-06-11T18:18:18.811Z,3.10
2017-06-11T18:20:46.125Z,3.00
2017-06-11T18:23:13.426Z,3.20
2017-06-11T18:25:40.777Z,3.10
2017-06-11T18:28:08.089Z,3.33
2017-06-11T18:30:35.401Z,3.30
2017-06-11T18:33:02.697Z,2.80
2017-06-11T18:35:30.045Z,3.30
2017-06-11T18:37:57.372Z,3.23
2017-06-11T18:40:24.683Z,3.23
2017-06-11T18:42:51.982Z,2.83
2017-06-11T18:45:19.305Z,3.43
2017-06-11T18:47:46.654Z,3.20
2017-06-11T18:50:14.010Z,3.23
2017-06-11T18:52:41.316Z,3.00
2017-06-11T18:55:08.619Z,3.30
2017-06-11T18:57:35.941Z,3.27
2017-06-11T19:00:03.228Z,3.50
2017-06-11T19:02:30.550Z,3.70
2017-06-11T19:04:57.854Z,3.97
2017-06-11T19:07:25.164Z,3.60
2017-06-11T19:09:52.510Z,3.57
2017-06-11T19:12:19.892Z,6.10
2017-06-11T19:14:47.189Z,5.30
2017-06-11T19:17:14.849Z,5.00
2017-06-11T19:19:42.146Z,4.90
2017-06-11T19:22:09.456Z,4.43
2017-06-11T19:24:36.763Z,5.10
2017-06-11T19:27:04.117Z,4.80
2017-06-11T19:29:31.428Z,4.60
2017-06-11T19:31:58.757Z,4.00
2017-06-11T19:34:26.074Z,4.30
2017-06-11T19:36:53.365Z,4.13
2017-06-11T19:39:20.725Z,3.60
2017-06-11T19:41:48.047Z,4.27
2017-06-11T19:44:15.390Z,3.70
2017-06-11T19:46:42.714Z,3.90
2017-06-11T19:49:10.046Z,4.00
2017-06-11T19:51:37.341Z,4.60
2017-06-11T19:54:04.678Z,4.30
2017-06-11T19:56:31.989Z,3.90
2017-06-11T19:58:59.334Z,3.97
2017-06-11T20:01:26.667Z,4.10
2017-06-11T20:03:54.025Z,3.70
2017-06-11T20:06:21.347Z,4.10
2017-06-11T20:08:48.669Z,4.30
2017-06-11T20:11:15.995Z,3.93
2017-06-11T20:13:43.289Z,4.00
2017-06-11T20:16:10.654Z,3.90
2017-06-11T20:18:37.956Z,3.87
2017-06-11T20:21:05.314Z,4.03
2017-06-11T20:23:32.670Z,3.53
2017-06-11T20:25:59.999Z,3.87
2017-06-11T20:28:27.307Z,4.23
2017-06-11T20:30:54.628Z,4.10
2017-06-11T20:33:21.932Z,3.87
2017-06-11T20:35:49.256Z,4.33
2017-06-11T20:38:16.569Z,4.03
2017-06-11T20:40:43.894Z,4.37
2017-06-11T20:43:11.216Z,3.93
2017-06-11T20:45:38.515Z,4.50
2017-06-11T20:48:05.866Z,4.20
2017-06-11T20:50:33.172Z,4.10
2017-06-11T20:53:00.503Z,4.70
2017-06-11T20:55:27.856Z,4.13
2017-06-11T20:57:55.182Z,4.23
2017-06-11T21:00:22.490Z,4.60
2017-06-11T21:02:50.094Z,4.10
2017-06-11T21:05:17.425Z,4.60
2017-06-11T21:07:44.752Z,4.10
2017-06-11T21:10:12.049Z,4.57
2017-06-11T21:12:39.369Z,5.90
2017-06-11T21:15:06.698Z,5.90
2017-06-11T21:17:34.029Z,5.90
2017-06-11T21:20:01.401Z,6.03
2017-06-11T21:22:28.725Z,6.17
2017-06-11T21:24:56.093Z,5.47
2017-06-11T21:27:23.407Z,5.77
2017-06-11T21:29:50.775Z,6.13
2017-06-11T21:32:18.071Z,6.53
2017-06-11T21:34:45.393Z,6.80
2017-06-11T21:37:12.702Z,6.60
2017-06-11T21:39:40.053Z,6.40
2017-06-11T21:42:07.365Z,6.70
2017-06-11T21:44:34.679Z,7.10
2017-06-11T21:47:01.998Z,6.83
2017-06-11T21:49:29.315Z,6.70
2017-06-11T21:51:57.736Z,6.93
2017-06-11T21:54:25.053Z,6.27
2017-06-11T21:56:52.366Z,6.70
2017-06-11T21:59:19.665Z,5.83
2017-06-11T22:01:47.016Z,6.33
2017-06-11T22:04:14.338Z,7.70
2017-06-11T22:06:41.693Z,7.57
2017-06-11T22:09:09.013Z,7.10
2017-06-11T22:11:36.377Z,7.80
2017-06-11T22:14:03.702Z,7.63
2017-06-11T22:16:31.053Z,7.43
2017-06-11T22:18:58.377Z,7.40
2017-06-11T22:21:25.706Z,7.73
2017-06-11T22:23:53.026Z,7.70
2017-06-11T22:26:20.347Z,7.37
2017-06-11T22:28:47.649Z,7.90
2017-06-11T22:31:14.982Z,7.00
2017-06-11T22:33:42.299Z,7.73
2017-06-11T22:36:09.605Z,7.60
2017-06-11T22:38:36.923Z,7.73
2017-06-11T22:41:04.252Z,7.30
2017-06-11T22:43:31.610Z,8.13
2017-06-11T22:45:58.925Z,8.10
2017-06-11T22:48:26.232Z,7.90
2017-06-11T22:50:53.540Z,8.00
2017-06-11T22:53:20.880Z,7.50
2017-06-11T22:55:48.197Z,8.13
2017-06-11T22:58:15.540Z,8.80
2017-06-11T23:00:42.841Z,8.47
2017-06-11T23:03:10.168Z,8.07
2017-06-11T23:05:37.461Z,7.63
2017-06-11T23:08:04.797Z,8.40
2017-06-11T23:10:32.143Z,8.53
2017-06-11T23:12:59.465Z,9.30
2017-06-11T23:15:26.928Z,9.60
2017-06-11T23:17:54.266Z,10.20
2017-06-11T23:20:21.612Z,9.73
2017-06-11T23:22:48.933Z,8.93
2017-06-11T23:25:16.244Z,9.87
2017-06-11T23:27:43.558Z,10.40
2017-06-11T23:30:10.887Z,8.30
2017-06-11T23:32:38.185Z,8.20
2017-06-11T23:35:05.514Z,7.80
2017-06-11T23:37:32.817Z,8.30
2017-06-11T23:40:00.166Z,9.27
2017-06-11T23:42:27.769Z,8.80
2017-06-11T23:44:55.099Z,8.43
2017-06-11T23:47:22.414Z,9.13
2017-06-11T23:49:49.709Z,8.80
2017-06-11T23:52:17.062Z,9.00
2017-06-11T23:54:44.377Z,8.90
2017-06-11T23:57:11.738Z,8.90
2017-06-11T23:59:39.065Z,9.60
